Time;durP1;ratioP1;P1;durP2;ratioP2;P2;SDS_P1;SDS_P2;PMS_P1;PMS_P2;Temp;Humidity;BMP_temperature;BMP_pressure;BME280_temperature;BME280_humidity;BME280_pressure;Samples;Min_cycle;Max_cycle;Signal;HPM_P1;HPM_P2
2022/06/10 00:00:35;;;;;;;7.18;3.20;;;;;;;12.12;100.00;102025.59;4973441;28;20030;-72
2022/06/10 00:03:00;;;;;;;7.30;3.15;;;;;;;12.09;100.00;102020.19;4973303;28;20019;-72
2022/06/10 00:05:29;;;;;;;11.23;3.53;;;;;;;12.06;100.00;102025.25;4973705;28;20085;-71
2022/06/10 00:07:55;;;;;;;10.10;3.45;;;;;;;12.06;100.00;102020.06;4973341;28;20041;-72
2022/06/10 00:10:24;;;;;;;17.13;4.53;;;;;;;12.06;100.00;102020.97;4973057;28;20471;-72
2022/06/10 00:12:50;;;;;;;14.48;4.32;;;;;;;12.06;100.00;102025.25;4973444;28;20026;-72
2022/06/10 00:15:16;;;;;;;10.02;3.33;;;;;;;12.07;100.00;102025.31;4973208;28;20161;-72
2022/06/10 00:17:43;;;;;;;8.07;3.67;;;;;;;12.04;100.00;102021.69;4973425;28;20034;-72
2022/06/10 00:20:10;;;;;;;7.57;4.00;;;;;;;11.98;100.00;102023.19;4972634;28;20114;-71
2022/06/10 00:22:36;;;;;;;8.60;3.67;;;;;;;11.96;100.00;102022.25;4973173;28;20276;-72
2022/06/10 00:25:02;;;;;;;12.43;4.15;;;;;;;11.95;100.00;102019.56;4973176;28;20027;-71
2022/06/10 00:27:27;;;;;;;11.57;3.63;;;;;;;11.93;100.00;102023.81;4973174;28;20034;-72
2022/06/10 00:29:53;;;;;;;10.15;4.30;;;;;;;11.93;100.00;102019.50;4973144;28;20035;-71
2022/06/10 00:32:18;;;;;;;9.52;4.03;;;;;;;11.93;100.00;102019.50;4972546;28;20026;-72
2022/06/10 00:34:44;;;;;;;10.00;3.67;;;;;;;11.95;100.00;102022.19;4972718;28;20022;-71
2022/06/10 00:37:09;;;;;;;11.77;4.30;;;;;;;11.94;100.00;102016.13;4955691;28;20030;-72
2022/06/10 00:39:35;;;;;;;12.75;4.55;;;;;;;11.94;100.00;102016.13;4972543;28;20019;-71
2022/06/10 00:42:04;;;;;;;10.68;3.70;;;;;;;11.92;100.00;102012.56;4972929;28;20039;-71
2022/06/10 00:44:35;;;;;;;16.70;3.63;;;;;;;11.92;100.00;102017.75;4972197;28;20089;-72
2022/06/10 00:47:04;;;;;;;10.23;3.88;;;;;;;11.92;100.00;102017.75;4972892;28;20033;-71
2022/06/10 00:49:31;;;;;;;10.23;3.58;;;;;;;11.92;100.00;102017.75;4972709;28;20023;-72
2022/06/10 00:51:57;;;;;;;9.35;3.75;;;;;;;11.93;100.00;102014.31;4971149;28;20078;-73
2022/06/10 00:54:35;;;;;;;9.95;3.88;;;;;;;11.95;100.00;102012.69;4972179;28;20045;-73
2022/06/10 00:57:09;;;;;;;9.68;3.83;;;;;;;11.96;100.00;102013.59;4972429;28;20447;-72
2022/06/10 00:59:38;;;;;;;10.32;3.70;;;;;;;11.98;100.00;102006.75;4972088;28;20077;-72
2022/06/10 01:02:09;;;;;;;12.27;3.47;;;;;;;12.00;100.00;102016.38;4972366;28;20045;-72
2022/06/10 01:04:34;;;;;;;9.18;3.42;;;;;;;11.99;100.00;102004.22;4972089;28;20177;-71
2022/06/10 01:07:00;;;;;;;14.20;4.47;;;;;;;12.03;100.00;102004.34;4954750;28;20483;-72
2022/06/10 01:09:28;;;;;;;12.00;3.63;;;;;;;12.04;100.00;102012.19;4972322;28;20027;-71
2022/06/10 01:12:06;;;;;;;11.07;3.03;;;;;;;12.06;100.00;102007.06;4972228;28;20259;-72
2022/06/10 01:14:43;;;;;;;10.48;3.03;;;;;;;12.08;100.00;102013.22;4971864;28;20035;-70
2022/06/10 01:17:16;;;;;;;9.82;3.67;;;;;;;12.09;100.00;102013.31;4972232;28;20046;-72
2022/06/10 01:20:08;;;;;;;10.45;3.20;;;;;;;12.09;100.00;102008.13;4972169;28;20049;-71
2022/06/10 01:22:43;;;;;;;9.63;3.30;;;;;;;12.11;100.00;102003.00;4972043;28;20410;-72
2022/06/10 01:25:30;;;;;;;9.27;3.53;;;;;;;12.13;100.00;102006.56;4971824;28;20079;-71
2022/06/10 01:28:14;;;;;;;7.80;3.22;;;;;;;12.15;100.00;102010.13;4971838;28;20065;-71
2022/06/10 01:31:12;;;;;;;10.85;3.90;;;;;;;12.17;100.00;102003.28;4972110;28;20069;-71
2022/06/10 01:33:57;;;;;;;9.40;3.20;;;;;;;12.19;100.00;102006.84;4971860;28;20038;-71
2022/06/10 01:36:32;;;;;;;10.10;3.25;;;;;;;12.19;100.00;102006.84;4972035;28;20065;-72
2022/06/10 01:39:16;;;;;;;8.75;3.00;;;;;;;12.23;100.00;102013.06;4971511;28;20058;-72
2022/06/10 01:42:26;;;;;;;11.73;3.17;;;;;;;12.28;100.00;102010.66;4971800;28;20134;-72
2022/06/10 01:45:01;;;;;;;10.07;2.60;;;;;;;12.31;100.00;102008.19;4911629;29;20036;-70
2022/06/10 01:47:48;;;;;;;11.63;3.20;;;;;;;12.33;100.00;102012.66;4911674;29;20060;-72
2022/06/10 01:50:23;;;;;;;8.88;2.80;;;;;;;12.37;100.00;102018.88;4954002;28;20047;-71
2022/06/10 01:53:00;;;;;;;10.23;2.90;;;;;;;12.40;100.00;102011.19;4971770;28;20033;-72
2022/06/10 01:55:45;;;;;;;7.40;2.72;;;;;;;12.42;100.00;102014.75;4971671;28;20641;-71
2022/06/10 01:58:22;;;;;;;9.13;2.85;;;;;;;12.45;100.00;102014.88;4971116;28;20422;-71
2022/06/10 02:00:52;;;;;;;9.13;2.67;;;;;;;12.47;100.00;102005.44;4971244;28;20391;-72
2022/06/10 02:03:37;;;;;;;8.27;3.08;;;;;;;12.52;100.00;102012.56;4970857;28;20042;-72
2022/06/10 02:06:35;;;;;;;13.60;2.72;;;;;;;12.55;100.00;102015.28;4971633;28;20027;-71
2022/06/10 02:09:15;;;;;;;9.85;2.63;;;;;;;12.57;100.00;102011.03;4971600;28;20025;-72
2022/06/10 02:11:46;;;;;;;11.30;2.45;;;;;;;12.60;100.00;102016.34;4970994;28;20514;-71
2022/06/10 02:14:19;;;;;;;8.40;2.42;;;;;;;12.64;100.00;102018.28;4970795;28;20217;-70
2022/06/10 02:16:48;;;;;;;7.78;3.65;;;;;;;12.67;100.00;102005.38;4971300;28;20030;-72
2022/06/10 02:19:27;;;;;;;11.60;2.30;;;;;;;12.67;100.00;102002.78;4970893;28;20080;-71
2022/06/10 02:22:05;;;;;;;11.98;2.90;;;;;;;12.71;100.00;102007.31;4970776;28;20065;-72
2022/06/10 02:24:37;;;;;;;12.68;2.45;;;;;;;12.75;100.00;102007.44;4971246;28;20426;-71
2022/06/10 02:27:09;;;;;;;9.80;2.20;;;;;;;12.76;100.00;102009.19;4970781;28;20030;-72
2022/06/10 02:29:44;;;;;;;8.55;2.35;;;;;;;12.78;100.00;102012.75;4970883;28;20490;-72
2022/06/10 02:32:10;;;;;;;8.48;2.60;;;;;;;12.79;100.00;102004.13;4971160;28;20022;-72
2022/06/10 02:34:35;;;;;;;8.73;2.70;;;;;;;12.80;100.00;102019.81;4970304;28;20553;-71
2022/06/10 02:37:26;;;;;;;9.18;2.58;;;;;;;12.82;100.00;102018.16;4970282;28;20081;-72
2022/06/10 02:40:03;;;;;;;12.27;2.78;;;;;;;12.83;100.00;102012.13;4970384;28;20123;-70
2022/06/10 02:42:42;;;;;;;8.73;2.53;;;;;;;12.87;100.00;102026.13;4970570;28;20087;-71
2022/06/10 02:45:19;;;;;;;8.30;2.70;;;;;;;12.89;100.00;102029.69;4970613;28;20430;-72
2022/06/10 02:48:32;;;;;;;11.02;2.78;;;;;;;12.92;100.00;102027.22;4970622;28;20069;-72
2022/06/10 02:50:58;;;;;;;8.55;2.60;;;;;;;12.95;100.00;102029.94;4956135;28;20423;-71
2022/06/10 02:53:24;;;;;;;8.25;2.60;;;;;;;12.97;100.00;102028.28;4970583;28;20089;-71
2022/06/10 02:55:49;;;;;;;9.25;2.47;;;;;;;12.99;100.00;102028.34;4970526;28;20039;-72
2022/06/10 03:01:20;;;;;;;10.20;3.10;;;;;;;13.03;100.00;102022.47;4970689;28;20121;-72
2022/06/10 03:04:21;;;;;;;8.02;2.78;;;;;;;13.05;100.00;102027.72;4952968;28;20552;-71
2022/06/10 03:07:08;;;;;;;7.13;2.58;;;;;;;13.06;100.00;102024.31;4970546;28;20031;-71
2022/06/10 03:10:04;;;;;;;11.23;3.15;;;;;;;13.07;100.00;102026.06;4970205;28;20150;-72
2022/06/10 03:12:40;;;;;;;11.15;2.88;;;;;;;13.06;100.00;102032.13;4970448;28;20041;-72
2022/06/10 03:15:18;;;;;;;9.73;2.67;;;;;;;13.08;100.00;102033.03;4969191;28;20293;-72
2022/06/10 03:17:53;;;;;;;7.00;2.30;;;;;;;13.10;100.00;102036.59;4969170;28;20479;-72
2022/06/10 03:20:33;;;;;;;9.18;2.70;;;;;;;13.10;100.00;102036.59;4968309;28;20039;-71
2022/06/10 03:23:26;;;;;;;10.40;3.58;;;;;;;13.12;100.00;102040.16;4968500;28;20033;-71
2022/06/10 03:25:57;;;;;;;12.55;3.47;;;;;;;13.13;100.00;102041.91;4967795;28;20037;-71
2022/06/10 03:28:41;;;;;;;11.52;2.90;;;;;;;13.15;100.00;102042.88;4968732;28;20031;-71
2022/06/10 03:31:16;;;;;;;9.25;3.08;;;;;;;13.17;100.00;102042.94;4967761;28;20042;-72
2022/06/10 03:33:47;;;;;;;11.18;2.90;;;;;;;13.18;100.00;102047.34;4967113;28;20409;-72
2022/06/10 03:36:16;;;;;;;11.93;3.10;;;;;;;13.15;100.00;102045.47;4967636;28;20039;-71
2022/06/10 03:38:46;;;;;;;10.23;3.03;;;;;;;13.16;100.00;102046.38;4968282;28;20034;-71
2022/06/10 03:41:24;;;;;;;11.82;2.78;;;;;;;13.17;100.00;102051.63;4968159;28;20404;-71
2022/06/10 03:43:52;;;;;;;12.07;3.15;;;;;;;13.16;100.00;102047.28;4968038;28;20031;-71
2022/06/10 03:46:21;;;;;;;11.27;3.28;;;;;;;13.18;100.00;102050.81;4969139;28;20037;-72
2022/06/10 03:48:48;;;;;;;10.07;2.63;;;;;;;13.20;100.00;102048.28;4970133;28;20103;-72
2022/06/10 03:51:16;;;;;;;11.00;2.47;;;;;;;13.22;100.00;102051.84;4969912;28;20388;-71
2022/06/10 03:53:41;;;;;;;13.25;3.15;;;;;;;13.24;100.00;102062.31;4969961;28;20045;-72
2022/06/10 03:56:07;;;;;;;9.50;2.83;;;;;;;13.23;100.00;102055.31;4969748;28;20027;-72
2022/06/10 03:58:33;;;;;;;10.57;2.90;;;;;;;13.19;100.00;102055.19;4969714;28;20038;-71
2022/06/10 04:00:59;;;;;;;11.15;3.30;;;;;;;13.21;100.00;102055.25;4969862;28;20193;-72
2022/06/10 04:03:25;;;;;;;9.40;3.53;;;;;;;13.19;100.00;102051.69;4969823;28;20027;-72
2022/06/10 04:05:50;;;;;;;13.07;3.42;;;;;;;13.19;100.00;102055.19;4969702;28;20485;-72
2022/06/10 04:08:16;;;;;;;9.20;3.30;;;;;;;13.20;100.00;102058.69;4969766;28;20031;-71
2022/06/10 04:10:41;;;;;;;12.85;4.00;;;;;;;13.21;100.00;102061.34;4969845;28;20030;-71
2022/06/10 04:13:07;;;;;;;10.90;2.72;;;;;;;13.19;100.00;102060.41;4969701;28;20027;-72
2022/06/10 04:15:32;;;;;;;13.68;4.18;;;;;;;13.21;100.00;102063.97;4969557;28;20396;-72
2022/06/10 04:17:58;;;;;;;11.05;2.95;;;;;;;13.23;100.00;102060.50;4969971;28;20039;-71
2022/06/10 04:20:30;;;;;;;9.82;3.75;;;;;;;13.24;100.00;102068.38;4969574;28;20491;-72
2022/06/10 04:22:56;;;;;;;10.52;3.45;;;;;;;13.27;100.00;102071.13;4969780;28;20045;-71
2022/06/10 04:25:22;;;;;;;11.77;3.65;;;;;;;13.29;100.00;102071.19;4969430;28;20030;-72
2022/06/10 04:27:47;;;;;;;10.45;3.13;;;;;;;13.30;100.00;102070.34;4973119;28;20113;-72
2022/06/10 04:30:26;;;;;;;13.95;3.53;;;;;;;13.35;100.00;102073.16;4973084;28;20027;-71
2022/06/10 04:32:52;;;;;;;15.02;3.63;;;;;;;13.35;100.00;102067.97;4972842;28;20376;-71
2022/06/10 04:35:18;;;;;;;10.40;3.47;;;;;;;13.38;100.00;102071.56;4972830;28;20030;-71
2022/06/10 04:37:45;;;;;;;11.82;3.15;;;;;;;13.40;100.00;102077.69;4973078;28;20055;-71
2022/06/10 04:40:13;;;;;;;11.00;3.67;;;;;;;13.43;100.00;102076.94;4972887;28;20536;-72
2022/06/10 04:42:40;;;;;;;11.57;3.10;;;;;;;13.44;100.00;102074.41;4972970;28;20031;-71
2022/06/10 04:45:06;;;;;;;11.40;3.00;;;;;;;13.47;100.00;102070.16;4973114;28;20037;-72
2022/06/10 04:47:31;;;;;;;14.50;3.45;;;;;;;13.48;100.00;102074.50;4972232;28;20062;-72
2022/06/10 04:49:59;;;;;;;12.10;3.47;;;;;;;13.48;100.00;102071.91;4972526;28;20081;-72
2022/06/10 04:52:27;;;;;;;12.63;3.80;;;;;;;13.49;100.00;102078.91;4972767;28;20034;-72
2022/06/10 04:54:53;;;;;;;7.82;3.00;;;;;;;13.49;100.00;102077.19;4972626;28;20725;-71
2022/06/10 04:57:18;;;;;;;17.73;3.97;;;;;;;13.50;100.00;102083.28;4972601;28;20125;-71
2022/06/10 04:59:43;;;;;;;15.85;3.97;;;;;;;13.52;100.00;102079.03;4972485;28;20034;-72
2022/06/10 05:02:08;;;;;;;12.77;3.72;;;;;;;13.51;100.00;102083.34;4972490;28;20298;-71
2022/06/10 05:04:34;;;;;;;12.15;4.43;;;;;;;13.52;100.00;102071.22;4972315;28;20035;-72
2022/06/10 05:07:00;;;;;;;14.52;4.25;;;;;;;13.53;100.00;102073.91;4972566;28;20475;-72
2022/06/10 05:09:25;;;;;;;11.05;3.42;;;;;;;13.54;100.00;102077.41;4972426;28;20022;-71
2022/06/10 05:11:50;;;;;;;10.32;3.38;;;;;;;13.53;100.00;102083.44;4972435;28;20038;-72
2022/06/10 05:14:16;;;;;;;14.48;3.85;;;;;;;13.55;100.00;102081.78;4954409;28;20077;-72
2022/06/10 05:16:41;;;;;;;9.68;3.53;;;;;;;13.57;100.00;102075.81;4972710;28;20391;-72
2022/06/10 05:19:06;;;;;;;13.45;3.78;;;;;;;13.59;100.00;102072.38;4972158;28;20086;-71
2022/06/10 05:21:32;;;;;;;9.32;3.35;;;;;;;13.60;100.00;102074.16;4972110;28;20161;-72
2022/06/10 05:23:57;;;;;;;13.25;3.92;;;;;;;13.63;100.00;102069.06;4972124;28;20030;-72
2022/06/10 05:26:22;;;;;;;12.20;2.92;;;;;;;13.67;100.00;102065.75;4972406;28;20023;-71
2022/06/10 05:28:50;;;;;;;11.57;3.13;;;;;;;13.73;100.00;102070.28;4972047;28;20042;-72
2022/06/10 05:31:15;;;;;;;8.55;2.72;;;;;;;13.75;100.00;102061.72;4971970;28;20019;-72
2022/06/10 05:36:24;;;;;;;7.65;2.60;;;;;;;13.79;100.00;102063.63;4972088;28;20586;-72
2022/06/10 05:38:49;;;;;;;9.43;2.75;;;;;;;13.83;100.00;102067.25;4970701;28;20030;-72
2022/06/10 05:43:59;;;;;;;7.30;2.38;;;;;;;13.90;100.00;102064.03;4971881;28;20035;-71
2022/06/10 05:46:24;;;;;;;10.27;2.67;;;;;;;13.95;100.00;102065.91;4971720;28;20031;-71
2022/06/10 05:48:49;;;;;;;10.65;3.25;;;;;;;14.02;100.00;102070.53;4971652;28;20030;-72
2022/06/10 05:51:14;;;;;;;10.93;2.90;;;;;;;14.06;100.00;102064.59;4971256;28;20133;-72
2022/06/10 05:53:40;;;;;;;9.48;2.67;;;;;;;14.12;100.00;102064.81;4971562;28;20081;-72
2022/06/10 05:56:05;;;;;;;7.85;2.00;;;;;;;14.19;100.00;102075.47;4971603;28;20030;-72
2022/06/10 05:58:31;;;;;;;6.57;2.17;;;;;;;14.22;100.00;102066.06;4971298;28;20026;-71
2022/06/10 06:00:57;;;;;;;9.20;2.40;;;;;;;14.28;100.00;102065.41;4971387;28;20035;-71
2022/06/10 06:03:23;;;;;;;9.85;2.65;;;;;;;14.33;100.00;102063.84;4970977;28;20030;-71
2022/06/10 06:05:49;;;;;;;8.77;2.85;;;;;;;14.38;100.00;102057.06;4971462;28;20042;-72
2022/06/10 06:08:15;;;;;;;8.40;2.15;;;;;;;14.45;100.00;102057.28;4971191;28;20038;-73
2022/06/10 06:10:40;;;;;;;10.52;2.60;;;;;;;14.56;100.00;102070.69;4971437;28;20035;-72
2022/06/10 06:13:05;;;;;;;8.82;2.33;;;;;;;14.63;100.00;102067.47;4971460;28;20161;-73
2022/06/10 06:15:32;;;;;;;9.82;2.38;;;;;;;14.70;100.00;102071.16;4971235;28;20376;-72
2022/06/10 06:17:57;;;;;;;5.38;1.60;;;;;;;14.75;100.00;102073.09;4970489;28;20038;-72
2022/06/10 06:20:23;;;;;;;9.77;2.25;;;;;;;14.81;100.00;102071.53;4971027;28;20488;-72
2022/06/10 06:22:49;;;;;;;10.43;2.50;;;;;;;14.81;100.00;102077.69;4971012;28;20128;-72
2022/06/10 06:25:17;;;;;;;9.32;2.10;;;;;;;14.82;100.00;102075.97;4970766;28;20031;-72
2022/06/10 06:27:44;;;;;;;7.20;2.20;;;;;;;14.83;100.00;102076.03;4971283;28;20037;-72
2022/06/10 06:30:16;;;;;;;8.32;2.22;;;;;;;14.88;100.00;102079.66;4970986;28;20031;-72
2022/06/10 06:32:41;;;;;;;5.97;1.65;;;;;;;14.93;100.00;102076.34;4970541;28;20499;-72
2022/06/10 06:35:07;;;;;;;7.65;2.10;;;;;;;14.99;100.00;102081.75;4970832;28;20035;-71
2022/06/10 06:37:33;;;;;;;5.40;1.98;;;;;;;15.04;100.00;102080.16;4970679;28;20042;-71
2022/06/10 06:39:58;;;;;;;7.60;1.67;;;;;;;15.10;100.00;102083.00;4970806;28;20038;-72
2022/06/10 06:42:24;;;;;;;6.43;1.85;;;;;;;15.16;100.00;102079.72;4970701;28;20106;-72
2022/06/10 06:44:50;;;;;;;6.50;1.90;;;;;;;15.22;100.00;102084.22;4970254;28;20065;-72
2022/06/10 06:47:15;;;;;;;5.35;1.70;;;;;;;15.28;100.00;102087.03;4970572;28;20321;-72
2022/06/10 06:49:41;;;;;;;6.22;1.58;;;;;;;15.35;100.00;102094.25;4970648;28;20050;-72
2022/06/10 06:52:08;;;;;;;6.22;1.50;;;;;;;15.41;100.00;102097.88;4970707;28;20042;-72
2022/06/10 06:54:37;;;;;;;5.40;1.60;;;;;;;15.48;100.00;102097.25;4952779;28;20331;-72
2022/06/10 06:57:03;;;;;;;10.60;1.60;;;;;;;15.53;100.00;102105.22;4970144;28;20033;-72
2022/06/10 06:59:29;;;;;;;7.65;1.58;;;;;;;15.58;100.00;102106.25;4985121;28;20038;-72
2022/06/10 07:01:54;;;;;;;7.35;1.50;;;;;;;15.63;100.00;102106.41;4970295;28;20046;-72
2022/06/10 07:04:20;;;;;;;9.38;1.92;;;;;;;15.67;100.00;102100.44;4952564;28;20033;-73
2022/06/10 07:06:45;;;;;;;7.13;1.63;;;;;;;15.71;100.00;102099.69;4970313;28;20395;-72
2022/06/10 07:09:10;;;;;;;5.05;1.48;;;;;;;15.72;98.79;102106.69;4970020;28;20081;-72
2022/06/10 07:11:38;;;;;;;8.07;1.50;;;;;;;15.76;99.44;102100.69;4970010;28;20038;-72
2022/06/10 07:14:03;;;;;;;6.30;1.88;;;;;;;15.80;99.83;102099.97;4970576;28;20548;-72
2022/06/10 07:16:29;;;;;;;10.25;2.08;;;;;;;15.83;98.17;102104.41;4970318;28;20035;-72
2022/06/10 07:18:54;;;;;;;6.57;1.40;;;;;;;15.85;98.24;102098.38;4969801;28;20034;-73
2022/06/10 07:21:20;;;;;;;5.97;1.98;;;;;;;15.90;98.57;102095.03;4969928;28;20137;-72
2022/06/10 07:23:45;;;;;;;8.52;1.52;;;;;;;15.97;98.47;102091.75;4969726;28;20434;-72
2022/06/10 07:26:10;;;;;;;5.38;1.80;;;;;;;16.02;98.66;102095.41;4970234;28;20026;-72
2022/06/10 07:28:36;;;;;;;9.10;2.05;;;;;;;16.10;97.11;102092.13;4970155;28;20538;-73
2022/06/10 07:31:02;;;;;;;7.00;1.70;;;;;;;16.19;96.76;102108.09;4970169;28;20033;-72
2022/06/10 07:33:27;;;;;;;7.40;1.38;;;;;;;16.26;96.74;102098.69;4969918;28;20069;-72
2022/06/10 07:35:52;;;;;;;5.32;1.10;;;;;;;16.37;95.50;102105.09;4970028;28;20090;-72
2022/06/10 07:38:18;;;;;;;3.90;1.60;;;;;;;16.48;95.88;102110.63;4969526;28;20026;-72
2022/06/10 07:43:30;;;;;;;6.80;1.48;;;;;;;16.66;92.87;102101.50;4970194;28;20456;-73
2022/06/10 07:45:56;;;;;;;4.95;1.25;;;;;;;16.72;92.98;102103.41;4969545;28;20082;-71
2022/06/10 07:48:21;;;;;;;5.15;1.63;;;;;;;16.72;91.63;102104.31;4969762;28;20037;-72
2022/06/10 07:50:48;;;;;;;7.18;1.10;;;;;;;16.71;92.53;102102.53;4969997;28;20019;-72
2022/06/10 07:53:15;;;;;;;7.80;1.65;;;;;;;16.71;92.07;102099.94;4969690;28;20034;-72
2022/06/10 07:55:40;;;;;;;7.13;1.95;;;;;;;16.69;92.32;102097.25;4969772;28;20030;-72
2022/06/10 07:58:06;;;;;;;5.03;1.50;;;;;;;16.65;92.44;102098.03;4969737;28;20093;-72
2022/06/10 08:00:34;;;;;;;5.03;1.60;;;;;;;16.62;90.99;102102.28;4969755;28;20433;-72
2022/06/10 08:02:59;;;;;;;4.15;1.42;;;;;;;16.66;92.40;102093.66;4973675;28;20459;-72
2022/06/10 08:05:25;;;;;;;7.70;1.83;;;;;;;16.69;92.36;102093.75;4973689;28;20109;-72
2022/06/10 08:07:50;;;;;;;3.88;1.10;;;;;;;16.71;92.05;102097.31;4973346;28;20066;-71
2022/06/10 08:10:23;;;;;;;5.07;1.20;;;;;;;16.82;93.47;102096.69;4973052;28;20033;-72
2022/06/10 08:12:48;;;;;;;4.50;1.20;;;;;;;16.88;92.38;102099.47;4973484;28;20031;-72
2022/06/10 08:15:16;;;;;;;6.80;1.20;;;;;;;16.90;89.73;102097.78;4972901;28;20026;-71
2022/06/10 08:17:41;;;;;;;4.53;1.73;;;;;;;16.98;90.78;102097.97;4973327;28;20042;-72
2022/06/10 08:20:08;;;;;;;8.02;2.03;;;;;;;17.05;89.72;102098.16;4973142;28;20035;-72
2022/06/10 08:22:35;;;;;;;5.22;1.63;;;;;;;17.16;89.58;102105.44;4972491;28;20386;-72
2022/06/10 08:25:03;;;;;;;4.90;1.13;;;;;;;17.24;87.95;102103.00;4973263;28;20491;-72
2022/06/10 08:27:29;;;;;;;4.50;1.48;;;;;;;17.33;86.10;102102.31;4973112;28;20022;-73
2022/06/10 08:29:55;;;;;;;4.05;1.55;;;;;;;17.39;85.43;102097.25;4973080;28;20534;-72
2022/06/10 08:32:21;;;;;;;3.08;1.25;;;;;;;17.41;83.92;102106.03;4972668;28;20030;-72
2022/06/10 08:34:47;;;;;;;7.30;1.60;;;;;;;17.48;85.91;102101.81;4972856;28;20034;-72
2022/06/10 08:37:12;;;;;;;5.38;1.50;;;;;;;17.56;85.62;102109.88;4973131;28;20044;-72
2022/06/10 08:39:37;;;;;;;7.60;1.52;;;;;;;17.59;82.85;102104.69;4972848;28;20119;-72
2022/06/10 08:42:24;;;;;;;7.28;1.30;;;;;;;17.63;84.42;102109.13;4973041;28;20342;-72
2022/06/10 08:45:12;;;;;;;7.07;1.88;;;;;;;17.61;83.70;102108.22;4973094;28;20030;-72
2022/06/10 08:47:52;;;;;;;8.88;1.80;;;;;;;17.62;83.50;102097.78;4972648;28;20026;-72
2022/06/10 08:50:36;;;;;;;5.32;1.60;;;;;;;17.64;82.77;102103.06;4972910;28;20041;-73
2022/06/10 08:53:15;;;;;;;6.50;1.65;;;;;;;17.67;83.80;102096.97;4972941;28;20526;-72
2022/06/10 08:56:06;;;;;;;7.55;1.67;;;;;;;17.74;83.64;102091.91;4972996;28;20041;-72
2022/06/10 08:58:41;;;;;;;7.25;2.00;;;;;;;17.83;83.82;102087.72;4972857;28;20031;-72
2022/06/10 09:01:18;;;;;;;7.53;2.20;;;;;;;17.96;82.21;102092.38;4972105;28;20046;-72
2022/06/10 09:04:06;;;;;;;9.18;2.13;;;;;;;18.31;82.24;102086.09;4955100;28;20069;-72
2022/06/10 09:06:50;;;;;;;7.70;1.92;;;;;;;18.69;78.48;102081.56;4936654;28;20035;-72
2022/06/10 09:09:18;;;;;;;7.18;2.13;;;;;;;19.01;77.16;102075.09;4955248;28;20062;-73
2022/06/10 09:12:01;;;;;;;9.13;2.30;;;;;;;19.28;74.46;102094.81;4971873;28;20027;-72
2022/06/10 09:14:28;;;;;;;6.28;2.20;;;;;;;19.38;74.98;102075.69;4972168;28;20129;-72
2022/06/10 09:16:59;;;;;;;7.15;2.25;;;;;;;19.48;75.00;102099.47;4972214;28;20391;-72
2022/06/10 09:19:33;;;;;;;7.50;2.00;;;;;;;19.67;75.36;102092.72;4972404;28;20035;-72
2022/06/10 09:22:05;;;;;;;9.82;2.33;;;;;;;19.54;74.38;102094.28;4972269;28;20077;-72
2022/06/10 09:24:31;;;;;;;10.25;2.00;;;;;;;19.73;75.07;102089.31;4972748;28;20026;-72
2022/06/10 09:27:16;;;;;;;7.50;2.00;;;;;;;20.15;74.82;102095.09;4972238;28;20450;-72
2022/06/10 09:29:42;;;;;;;7.65;2.28;;;;;;;20.28;72.57;102093.50;4972386;28;20023;-72
2022/06/10 09:32:36;;;;;;;11.38;2.83;;;;;;;20.53;72.85;102088.50;4971805;28;20387;-73
2022/06/10 09:35:12;;;;;;;7.05;2.30;;;;;;;20.76;71.33;102086.09;4972143;28;20041;-72
2022/06/10 09:37:52;;;;;;;11.68;2.67;;;;;;;20.95;71.63;102093.31;4971949;28;20030;-73
2022/06/10 09:40:38;;;;;;;7.45;1.88;;;;;;;20.92;69.85;102091.47;4972106;28;20549;-72
2022/06/10 09:43:33;;;;;;;9.20;2.00;;;;;;;20.85;70.60;102090.56;4971702;28;20491;-72
2022/06/10 09:46:07;;;;;;;9.50;2.38;;;;;;;20.80;71.61;102092.28;4971941;28;20026;-72
2022/06/10 09:48:51;;;;;;;7.88;1.60;;;;;;;20.99;75.36;102097.75;4971914;28;20162;-72
2022/06/10 09:51:16;;;;;;;9.75;2.20;;;;;;;20.98;72.89;102091.59;4971551;28;20034;-72
2022/06/10 09:53:41;;;;;;;7.57;2.17;;;;;;;21.05;73.91;102088.97;4972033;28;20463;-72
2022/06/10 09:56:25;;;;;;;5.72;1.70;;;;;;;21.10;73.45;102089.94;4971392;28;20486;-72
2022/06/10 09:59:21;;;;;;;8.98;2.40;;;;;;;20.95;72.47;102102.09;4971450;28;20027;-72
2022/06/10 10:02:17;;;;;;;6.28;2.30;;;;;;;20.86;72.45;102087.06;4945449;28;20113;-73
2022/06/10 10:04:57;;;;;;;6.22;2.35;;;;;;;20.89;73.70;102094.09;4971597;28;20034;-73
2022/06/10 10:07:28;;;;;;;7.93;2.17;;;;;;;20.76;74.17;102093.09;4971880;28;20053;-73
2022/06/10 10:10:13;;;;;;;7.75;3.00;;;;;;;20.64;72.92;102099.16;4970956;28;20034;-72
2022/06/10 10:12:59;;;;;;;9.25;2.53;;;;;;;20.68;73.95;102100.06;4971566;28;20034;-72
2022/06/10 10:15:33;;;;;;;11.63;2.88;;;;;;;20.48;72.89;102096.38;4971645;28;20288;-73
2022/06/10 10:18:23;;;;;;;7.82;2.20;;;;;;;20.44;72.65;102093.66;4971846;28;20478;-73
2022/06/10 10:21:02;;;;;;;8.20;3.03;;;;;;;20.57;74.10;102100.84;4970788;28;20396;-72
2022/06/10 10:23:34;;;;;;;9.32;2.70;;;;;;;20.77;74.52;102097.53;4970737;28;20029;-73
2022/06/10 10:26:00;;;;;;;8.00;2.20;;;;;;;20.83;75.62;102096.69;4971095;28;20031;-73
2022/06/10 10:28:31;;;;;;;8.20;2.75;;;;;;;20.70;74.16;102101.84;4971020;28;20113;-73
2022/06/10 10:31:05;;;;;;;8.13;2.80;;;;;;;20.64;74.48;102097.41;4970759;28;20023;-73
2022/06/10 10:33:30;;;;;;;9.32;2.67;;;;;;;20.35;75.08;102099.72;4971174;28;20412;-72
2022/06/10 10:35:58;;;;;;;8.30;2.53;;;;;;;20.42;77.16;102091.03;4971172;28;20237;-73
2022/06/10 10:38:36;;;;;;;8.75;2.92;;;;;;;20.50;75.16;102093.75;4953472;28;20027;-72
2022/06/10 10:41:18;;;;;;;9.80;2.53;;;;;;;20.83;75.28;102086.16;4970976;28;20435;-73
2022/06/10 10:43:46;;;;;;;9.02;2.42;;;;;;;21.14;76.19;102080.28;4970468;28;20031;-73
2022/06/10 10:46:56;;;;;;;8.00;2.50;;;;;;;21.57;76.89;102083.19;4970746;28;20105;-72
2022/06/10 10:49:34;;;;;;;8.35;2.58;;;;;;;21.81;70.82;102084.22;4964715;28;20051;-73
2022/06/10 10:52:07;;;;;;;7.93;2.70;;;;;;;21.94;70.48;102084.28;4970215;28;20030;-73
2022/06/10 10:54:36;;;;;;;11.90;2.95;;;;;;;21.71;69.74;102072.69;4970380;28;20034;-72
2022/06/10 10:57:14;;;;;;;10.48;2.63;;;;;;;21.31;70.62;102080.41;4970529;28;20029;-72
2022/06/10 10:59:43;;;;;;;8.45;2.65;;;;;;;21.07;71.56;102068.81;4970741;28;20034;-72
2022/06/10 11:02:33;;;;;;;10.90;3.13;;;;;;;21.00;73.34;102070.50;4970200;28;20399;-72
2022/06/10 11:05:18;;;;;;;11.10;3.38;;;;;;;20.99;73.21;102076.66;4970449;28;20038;-73
2022/06/10 11:07:45;;;;;;;8.45;2.60;;;;;;;21.03;74.45;102075.81;4970508;28;20022;-72
2022/06/10 11:10:24;;;;;;;6.63;2.60;;;;;;;20.98;73.57;102078.41;4952753;28;20086;-73
2022/06/10 11:12:50;;;;;;;9.43;2.65;;;;;;;20.96;74.73;102076.63;4970557;28;20031;-73
2022/06/10 11:15:23;;;;;;;8.77;2.88;;;;;;;20.75;73.56;102079.06;4970108;28;20031;-73
2022/06/10 11:17:49;;;;;;;9.88;2.83;;;;;;;20.80;74.65;102080.84;4970008;28;20031;-72
2022/06/10 11:20:14;;;;;;;8.73;2.47;;;;;;;20.86;75.06;102079.16;4969031;28;20031;-72
2022/06/10 11:22:40;;;;;;;9.15;2.15;;;;;;;21.06;75.64;102081.13;4969259;28;20089;-73
2022/06/10 11:25:08;;;;;;;9.75;2.65;;;;;;;21.27;74.95;102071.59;4969715;28;20027;-72
2022/06/10 11:27:37;;;;;;;7.75;3.10;;;;;;;21.63;72.16;102068.25;4969571;28;20035;-72
2022/06/10 11:30:05;;;;;;;8.02;2.65;;;;;;;21.80;72.39;102066.63;4969612;28;20077;-72
2022/06/10 11:32:45;;;;;;;8.55;2.60;;;;;;;21.78;70.47;102072.75;4969622;28;20391;-73
2022/06/10 11:35:32;;;;;;;9.07;3.08;;;;;;;21.67;70.77;102070.06;4968354;28;20097;-73
2022/06/10 11:38:23;;;;;;;9.13;2.67;;;;;;;21.85;71.84;102074.56;4969471;28;20115;-72
2022/06/10 11:40:53;;;;;;;9.57;2.83;;;;;;;22.01;69.78;102072.88;4968782;28;20500;-72
2022/06/10 11:43:39;;;;;;;10.27;3.05;;;;;;;22.27;69.09;102063.28;4969977;28;20167;-72
2022/06/10 11:46:32;;;;;;;8.98;2.97;;;;;;;22.10;68.35;102063.22;4969417;28;20023;-73
2022/06/10 11:49:13;;;;;;;11.40;3.05;;;;;;;21.97;69.35;102057.00;4968986;28;20483;-73